»·PEaware :: N9536D KSAN-KSEE

N9536D :: KSAN-KSEE

FLIGHT INFORMATION

Flight Status: Arrived
Operator: Privately registered:
United States
More flights under this callsign
Pilot: Chris O. (28812)
Aircraft: CESSNA 172 SKYHAWK
(C172)
More flights by this aircraft type
Origin: KSAN San Diego Intl-Lindbergh
United States
Destination: KSEE Gillespie
United States
More flights between these airports :: More routes between these airports
Route: +V66 BARET
File this flight plan on PilotEdge
Remarks:
Altitude:
(Current/Filed)
3,000ft
Speed:
(Current/Filed)
108kts
Departed: 12-Apr-20 05:03 PM
Arrived: 12-Apr-20 05:22 PM
Distance/Time
Traveled:
12nm/0:19
Distance/Time
To Go:
Arrived

Flight Plot

Page will automatically refresh every two minutes.

Flight plan parsing failed; only flown route is shown


Map Options




Map Legend


Flown Route
Filed Route
Departure Airport
Arrival Airport
Navaid (VOR, NDB)
Fix

Horizontal Profiles

Position Reports

Time Latitude Longitude Heading Altitude Ground
Speed
12-Apr-20 16:33 32.732420 -117.176641 194 22ft 0kts
12-Apr-20 16:34 32.732420 -117.176641 194 22ft 0kts
12-Apr-20 16:35 32.732420 -117.176641 194 22ft 0kts
12-Apr-20 16:36 32.732420 -117.176641 194 22ft 0kts
12-Apr-20 16:37 32.732420 -117.176641 194 22ft 0kts
12-Apr-20 16:38 32.732420 -117.176641 194 22ft 0kts
12-Apr-20 16:39 32.732420 -117.176641 194 22ft 0kts
12-Apr-20 16:40 32.732420 -117.176641 194 22ft 0kts
12-Apr-20 16:41 32.732420 -117.176641 194 22ft 0kts
12-Apr-20 16:42 32.732420 -117.176641 194 22ft 0kts
12-Apr-20 16:43 32.732420 -117.176641 194 22ft 0kts
12-Apr-20 16:44 32.732420 -117.176641 194 22ft 0kts
12-Apr-20 16:45 32.732420 -117.176641 194 22ft 0kts
12-Apr-20 16:46 32.732420 -117.176641 194 22ft 0kts
12-Apr-20 16:47 32.732420 -117.176641 194 22ft 0kts
12-Apr-20 16:48 32.732420 -117.176641 194 22ft 0kts
12-Apr-20 16:49 32.732420 -117.176641 194 22ft 0kts
12-Apr-20 16:50 32.732420 -117.176641 194 22ft 0kts
12-Apr-20 16:51 32.732420 -117.176641 194 22ft 0kts
12-Apr-20 16:52 32.732420 -117.176641 194 22ft 0kts
12-Apr-20 16:53 32.732420 -117.176641 194 22ft 0kts
12-Apr-20 16:54 32.732199 -117.176711 193 21ft 5kts
12-Apr-20 16:55 32.730966 -117.175537 134 21ft 0kts
12-Apr-20 16:56 32.730966 -117.175537 134 21ft 0kts
12-Apr-20 16:57 32.730966 -117.175537 134 21ft 0kts
12-Apr-20 16:58 32.730966 -117.175537 134 21ft 0kts
12-Apr-20 16:59 32.730966 -117.175537 134 21ft 0kts
12-Apr-20 17:00 32.730931 -117.175496 136 21ft 1kts
12-Apr-20 17:01 32.730217 -117.175896 284 20ft 1kts
12-Apr-20 17:02 32.734685 -117.194135 286 554ft 74kts
12-Apr-20 17:03 32.750884 -117.210728 321 1391ft 81kts
12-Apr-20 17:04 32.769512 -117.226202 320 2205ft 83kts
12-Apr-20 17:05 32.788825 -117.241264 321 2971ft 84kts
12-Apr-20 17:06 32.808758 -117.255830 321 3677ft 84kts
12-Apr-20 17:07 32.830461 -117.271814 320 4004ft 104kts
12-Apr-20 17:08 32.855480 -117.290635 321 3993ft 106kts
12-Apr-20 17:09 32.880413 -117.309488 321 4008ft 106kts
12-Apr-20 17:10 32.905580 -117.306927 76 4223ft 121kts
12-Apr-20 17:11 32.901865 -117.271735 131 4824ft 113kts
12-Apr-20 17:12 32.882136 -117.241176 152 4907ft 118kts
12-Apr-20 17:13 32.863848 -117.212137 98 4184ft 108kts
12-Apr-20 17:14 32.859990 -117.178887 102 3082ft 95kts
12-Apr-20 17:15 32.855535 -117.147638 98 2473ft 97kts
12-Apr-20 17:16 32.851095 -117.115808 101 2531ft 100kts
12-Apr-20 17:17 32.847147 -117.082878 101 2434ft 99kts
12-Apr-20 17:18 32.841972 -117.050628 103 2008ft 103kts
12-Apr-20 17:19 32.836138 -117.018098 104 1217ft 96kts
12-Apr-20 17:20 32.831136 -116.990310 103 563ft 73kts
12-Apr-20 17:21 32.827712 -116.971620 102 371ft 26kts
12-Apr-20 17:22 32.826132 -116.964547 142 393ft 12kts
12-Apr-20 17:23 32.825907 -116.964373 155 393ft 1kts
12-Apr-20 17:24 32.824871 -116.965658 284 388ft 11kts
12-Apr-20 17:25 32.824794 -116.968548 318 380ft 1kts
12-Apr-20 17:26 32.824934 -116.968933 181 380ft 0kts
12-Apr-20 17:27 32.824934 -116.968933 181 380ft 0kts

Navigation Log

Ident Type
Flight plan parsing failed, navigation log unavailable